Time;durP1;ratioP1;P1;durP2;ratioP2;P2;SDS_P1;SDS_P2;PMS_P1;PMS_P2;Temp;Humidity;BMP_temperature;BMP_pressure;BME280_temperature;BME280_humidity;BME280_pressure;Samples;Min_cycle;Max_cycle;Signal;HPM_P1;HPM_P2
2022/08/12 00:44:49;;;;;;;;;12.25;10.50;;;;;26.00;31.91;100757.16;4974394;28;45775;-75
2022/08/12 00:47:17;;;;;;;;;17.00;15.75;;;;;25.95;31.10;100749.38;4975553;28;45285;-74
2022/08/12 00:49:44;;;;;;;;;17.25;16.50;;;;;25.93;31.41;100747.78;4975427;28;45518;-74
2022/08/12 00:52:11;;;;;;;;;16.75;16.00;;;;;25.88;31.72;100745.44;4973196;28;48281;-74
2022/08/12 00:54:41;;;;;;;;;17.50;17.00;;;;;25.84;31.52;100744.84;4975219;28;45380;-75
2022/08/12 00:57:19;;;;;;;;;14.00;14.00;;;;;25.81;31.82;100742.41;4974612;28;45405;-74
2022/08/12 01:00:00;;;;;;;;;18.00;17.50;;;;;25.76;31.70;100743.75;4975052;28;45553;-73
2022/08/12 01:02:30;;;;;;;;;17.50;16.00;;;;;25.73;31.82;100738.59;4974347;28;46456;-75
2022/08/12 01:13:20;;;;;;;;;15.00;14.00;;;;;25.51;31.68;100726.81;4974326;28;45419;-74
2022/08/12 01:15:50;;;;;;;;;17.50;14.00;;;;;25.52;32.05;100733.91;4974858;28;45259;-73
2022/08/12 01:18:18;;;;;;;;;12.50;12.00;;;;;25.50;32.24;100736.75;4973046;28;45347;-74
2022/08/12 01:20:46;;;;;;;;;15.75;14.25;;;;;25.46;31.73;100732.59;4975616;28;45462;-75
2022/08/12 01:23:20;;;;;;;;;15.50;14.50;;;;;25.43;32.04;100738.25;4974583;28;46288;-74
2022/08/12 01:25:49;;;;;;;;;12.75;12.75;;;;;25.36;31.38;100732.44;4972931;28;45559;-76
2022/08/12 01:28:17;;;;;;;;;15.00;15.00;;;;;25.29;31.69;100728.50;4985798;28;45360;-74
2022/08/12 01:30:43;;;;;;;;;15.50;14.25;;;;;25.32;31.95;100739.09;4974742;28;45690;-73
2022/08/12 01:33:15;;;;;;;;;15.50;13.00;;;;;25.29;31.99;100738.44;4973103;28;48356;-75
2022/08/12 01:35:47;;;;;;;;;13.00;13.00;;;;;25.24;32.35;100730.69;4973214;28;45742;-73
2022/08/12 01:38:18;;;;;;;;;14.25;13.75;;;;;25.22;32.22;100734.50;4973854;28;45525;-74
2022/08/12 01:40:46;;;;;;;;;12.50;12.50;;;;;25.20;32.40;100734.63;4959476;28;45388;-73
2022/08/12 01:43:18;;;;;;;;;13.25;13.00;;;;;25.13;32.78;100722.59;4975136;28;45511;-74
2022/08/12 01:46:28;;;;;;;;;14.25;12.75;;;;;25.16;32.01;100735.88;4975319;28;45368;-73
2022/08/12 01:49:06;;;;;;;;;13.50;13.25;;;;;25.09;32.96;100737.31;4930979;28;45476;-74
2022/08/12 01:51:41;;;;;;;;;15.50;15.00;;;;;25.05;32.67;100725.03;4933519;28;45357;-74
2022/08/12 01:54:12;;;;;;;;;15.25;14.25;;;;;25.08;32.38;100730.19;4932434;28;46344;-73
2022/08/12 01:56:48;;;;;;;;;15.00;15.00;;;;;25.05;32.51;100735.84;4936228;28;45604;-74
2022/08/12 01:59:48;;;;;;;;;16.00;14.50;;;;;24.98;32.77;100739.03;4931712;28;45381;-72
2022/08/12 02:02:17;;;;;;;;;15.00;15.00;;;;;24.95;32.99;100731.16;4952305;28;45512;-75
2022/08/12 02:13:59;;;;;;;;;11.75;11.75;;;;;24.84;33.22;100717.63;4933895;28;45500;-74
2022/08/12 02:17:18;;;;;;;;;13.25;13.25;;;;;24.79;33.05;100712.59;4920587;28;45466;-75
2022/08/12 02:20:30;;;;;;;;;14.00;10.50;;;;;24.77;33.35;100710.97;4932683;28;45585;-74
2022/08/12 02:22:58;;;;;;;;;13.75;13.75;;;;;24.71;33.29;100706.91;4838084;29;45441;-74
2022/08/12 02:25:34;;;;;;;;;13.50;13.50;;;;;24.72;33.61;100703.22;4853126;29;45615;-72
2022/08/12 02:28:00;;;;;;;;;13.75;13.75;;;;;24.68;33.79;100704.44;4875827;29;46217;-75
2022/08/12 02:30:28;;;;;;;;;13.50;13.50;;;;;24.65;33.44;100708.22;4862009;29;45511;-75
2022/08/12 02:32:55;;;;;;;;;10.75;10.75;;;;;24.64;33.29;100711.03;4879224;29;45687;-75
2022/08/12 02:35:26;;;;;;;;;12.25;11.75;;;;;24.61;33.36;100711.28;4878952;29;45749;-75
2022/08/12 02:37:54;;;;;;;;;12.00;12.00;;;;;24.42;33.25;100680.25;4879247;29;47040;-74
2022/08/12 02:40:21;;;;;;;;;14.75;12.75;;;;;24.55;33.49;100712.59;4888813;29;45340;-74
2022/08/12 02:43:02;;;;;;;;;14.75;13.25;;;;;24.53;33.51;100711.84;4880215;29;45534;-75
2022/08/12 02:45:37;;;;;;;;;14.00;12.50;;;;;24.50;33.73;100706.69;4879084;29;45573;-75
2022/08/12 02:48:06;;;;;;;;;13.75;12.25;;;;;24.46;33.82;100700.66;4863831;29;47706;-75
2022/08/12 02:50:35;;;;;;;;;12.25;12.25;;;;;24.41;33.35;100696.59;4879023;29;45540;-73
2022/08/12 02:53:02;;;;;;;;;16.25;14.75;;;;;24.42;33.61;100698.31;4895770;28;45483;-74
2022/08/12 02:55:34;;;;;;;;;13.00;13.00;;;;;24.40;34.01;100697.56;4968084;28;45381;-74
2022/08/12 02:58:02;;;;;;;;;13.25;13.25;;;;;24.37;33.85;100692.38;4977435;28;45451;-75
2022/08/12 03:00:28;;;;;;;;;12.75;11.75;;;;;24.37;33.49;100693.25;4977476;28;45341;-75
2022/08/12 03:02:59;;;;;;;;;13.50;13.50;;;;;24.37;33.70;100697.78;4977399;28;45298;-77
2022/08/12 03:05:25;;;;;;;;;14.25;13.75;;;;;24.35;33.32;100697.91;4976407;28;45574;-75
2022/08/12 03:07:55;;;;;;;;;14.00;13.75;;;;;24.27;33.37;100685.00;4976821;28;45478;-75
2022/08/12 03:10:23;;;;;;;;;13.00;13.00;;;;;24.33;34.36;100707.97;4976247;28;45448;-74
2022/08/12 03:12:56;;;;;;;;;14.00;11.75;;;;;24.35;34.35;100705.16;4978118;28;45409;-75
2022/08/12 03:15:23;;;;;;;;;13.50;12.50;;;;;24.32;33.53;100710.78;4976733;28;45344;-76
2022/08/12 03:18:16;;;;;;;;;14.50;14.00;;;;;24.27;33.91;100712.00;4975481;28;46379;-77
2022/08/12 03:20:41;;;;;;;;;13.50;13.25;;;;;24.23;33.82;100715.91;4976649;28;45458;-78
2022/08/12 03:23:12;;;;;;;;;10.25;10.25;;;;;24.21;33.56;100714.31;4976550;28;45491;-76
2022/08/12 03:25:41;;;;;;;;;13.25;13.25;;;;;24.17;34.73;100710.94;4988338;28;45539;-74
2022/08/12 03:28:48;;;;;;;;;14.00;12.50;;;;;24.16;33.73;100717.34;4980675;28;46127;-76
2022/08/12 03:31:02;;;;;;;;;12.50;12.50;;;;;24.08;34.10;100698.16;4976296;28;45447;-76
2022/08/12 03:33:33;;;;;;;;;8.75;8.75;;;;;24.10;34.22;100709.72;4976970;28;45394;-75
2022/08/12 03:36:02;;;;;;;;;11.50;10.00;;;;;24.08;34.90;100712.53;4974963;28;45943;-75
2022/08/12 03:38:28;;;;;;;;;12.75;12.75;;;;;24.07;34.95;100709.94;4976900;28;46457;-75
2022/08/12 04:00:24;;;;;;;;;13.00;12.25;;;;;23.93;34.27;100713.69;4976277;28;45331;-76
2022/08/12 04:03:00;;;;;;;;;14.25;13.25;;;;;23.86;34.10;100699.75;4975960;28;45345;-76
2022/08/12 04:05:27;;;;;;;;;12.50;12.50;;;;;23.85;35.07;100703.41;4976819;28;45471;-75
2022/08/12 04:07:54;;;;;;;;;10.75;10.75;;;;;23.82;34.68;100702.75;4975255;28;45447;-75
2022/08/12 04:10:20;;;;;;;;;13.25;11.25;;;;;23.78;34.16;100702.13;4986900;28;46297;-76
2022/08/12 04:13:15;;;;;;;;;14.25;12.75;;;;;23.78;35.05;100702.13;4996124;28;45442;-75
2022/08/12 04:15:44;;;;;;;;;11.50;11.50;;;;;23.75;34.69;100696.97;4996262;28;45507;-76
2022/08/12 04:18:11;;;;;;;;;12.25;12.25;;;;;23.74;34.72;100700.63;4989308;28;45523;-76
2022/08/12 04:20:38;;;;;;;;;16.00;14.00;;;;;23.68;34.31;100693.84;4975086;28;45470;-75
2022/08/12 04:23:06;;;;;;;;;14.25;14.25;;;;;23.66;34.64;100697.66;4975664;28;45365;-76
2022/08/12 04:25:32;;;;;;;;;11.00;11.00;;;;;23.65;34.84;100701.31;4990037;28;45574;-76
2022/08/12 04:27:58;;;;;;;;;13.50;13.50;;;;;23.63;34.38;100706.81;5010627;28;45408;-76
2022/08/12 04:30:23;;;;;;;;;12.00;12.00;;;;;23.51;34.84;100695.09;4989438;28;45921;-76
2022/08/12 04:32:49;;;;;;;;;13.00;13.00;;;;;23.52;35.10;100701.31;4976000;28;45250;-76
2022/08/12 04:35:15;;;;;;;;;13.50;12.00;;;;;23.45;35.14;100698.22;4975442;28;45470;-76
2022/08/12 04:37:44;;;;;;;;;12.50;12.50;;;;;23.45;35.82;100703.63;4974860;28;45623;-75
2022/08/12 04:40:12;;;;;;;;;14.25;12.00;;;;;23.48;35.56;100697.16;4974976;28;45764;-76
2022/08/12 04:42:37;;;;;;;;;11.25;11.25;;;;;23.49;35.62;100705.13;4976333;28;45557;-75
2022/08/12 04:45:03;;;;;;;;;12.00;12.00;;;;;23.50;35.48;100692.50;4974719;28;45345;-75
2022/08/12 04:47:29;;;;;;;;;13.25;13.00;;;;;23.64;35.31;100695.06;4975830;28;45498;-75
2022/08/12 04:49:55;;;;;;;;;13.00;13.00;;;;;23.86;34.66;100702.47;4975057;28;46099;-75
2022/08/12 04:52:20;;;;;;;;;13.50;13.00;;;;;24.04;35.19;100713.72;4974002;28;45437;-76
2022/08/12 04:54:46;;;;;;;;;11.75;11.75;;;;;24.24;34.21;100706.81;4974055;28;45275;-76
2022/08/12 04:57:12;;;;;;;;;12.00;10.00;;;;;24.36;34.08;100696.09;4973948;28;45560;-76
2022/08/12 04:59:37;;;;;;;;;13.25;12.50;;;;;24.72;33.64;100699.66;4973876;28;46982;-76
2022/08/12 05:02:03;;;;;;;;;12.25;11.75;;;;;25.14;33.18;100706.25;4976043;28;45481;-76
2022/08/12 05:04:29;;;;;;;;;14.75;14.75;;;;;25.56;32.63;100708.34;4974966;28;45355;-75
2022/08/12 05:06:55;;;;;;;;;11.00;11.00;;;;;25.92;31.60;100706.31;4976028;28;45443;-74
2022/08/12 05:09:20;;;;;;;;;11.00;11.00;;;;;26.38;31.33;100707.91;4974378;28;46318;-76
2022/08/12 05:11:48;;;;;;;;;11.50;11.50;;;;;26.77;30.83;100699.25;4976238;28;45355;-76
2022/08/12 05:14:15;;;;;;;;;12.50;12.25;;;;;27.21;30.18;100704.47;4975190;28;45470;-75
2022/08/12 05:16:40;;;;;;;;;14.25;12.50;;;;;27.67;29.52;100703.09;4975296;28;45525;-75
2022/08/12 05:19:06;;;;;;;;;12.25;12.00;;;;;28.23;29.08;100708.94;4973760;28;46996;-76
2022/08/12 05:21:32;;;;;;;;;12.00;12.00;;;;;28.77;27.89;100715.63;4974594;28;45387;-75
2022/08/12 05:23:57;;;;;;;;;16.25;14.75;;;;;29.31;27.31;100706.94;4973327;28;45730;-76
2022/08/12 05:26:23;;;;;;;;;11.00;11.00;;;;;29.75;26.49;100709.88;4974700;28;45590;-75
2022/08/12 05:28:49;;;;;;;;;14.25;14.25;;;;;30.27;26.33;100712.81;4975106;28;47223;-77
2022/08/12 05:31:16;;;;;;;;;13.00;12.00;;;;;30.74;25.26;100702.69;4975026;28;45606;-76
2022/08/12 05:33:44;;;;;;;;;13.00;13.00;;;;;31.22;25.23;100706.78;4974812;28;45453;-76
2022/08/12 05:36:12;;;;;;;;;12.00;12.00;;;;;31.69;24.52;100709.06;4974414;28;45434;-76
2022/08/12 05:38:56;;;;;;;;;12.50;11.50;;;;;32.16;23.81;100704.94;4983589;28;45952;-75
2022/08/12 05:41:31;;;;;;;;;11.25;11.25;;;;;32.74;23.66;100699.50;4955447;28;45450;-76
2022/08/12 05:43:59;;;;;;;;;12.25;11.50;;;;;33.29;22.68;100706.06;4958708;28;45402;-76
2022/08/12 05:46:27;;;;;;;;;13.00;12.00;;;;;33.79;22.29;100696.59;4974436;28;45436;-75
2022/08/12 05:48:53;;;;;;;;;10.00;9.25;;;;;34.12;22.02;100701.03;4974856;28;45406;-76
2022/08/12 05:51:23;;;;;;;;;12.00;11.25;;;;;34.37;21.38;100701.72;4973927;28;45580;-76
2022/08/12 05:53:50;;;;;;;;;11.25;10.00;;;;;34.68;20.57;100706.22;4985731;28;45479;-76
2022/08/12 05:56:22;;;;;;;;;12.75;12.50;;;;;34.93;21.15;100714.28;4994869;28;45510;-75
2022/08/12 05:58:48;;;;;;;;;11.00;11.00;;;;;35.31;20.28;100711.47;5009084;28;48334;-76
2022/08/12 06:01:14;;;;;;;;;10.25;9.75;;;;;35.86;20.63;100712.81;4980459;28;45446;-75
2022/08/12 06:03:40;;;;;;;;;12.50;11.75;;;;;36.32;19.46;100714.41;4975644;28;45467;-76
2022/08/12 06:06:06;;;;;;;;;12.50;11.00;;;;;36.60;19.25;100703.44;4978019;28;45356;-76
2022/08/12 06:08:34;;;;;;;;;11.75;11.00;;;;;36.54;18.92;100709.72;4977628;28;45432;-75
2022/08/12 06:11:01;;;;;;;;;10.00;10.00;;;;;36.70;19.07;100704.97;4977371;28;45661;-75
2022/08/12 06:13:28;;;;;;;;;13.25;11.75;;;;;36.96;18.88;100705.22;4978657;28;45524;-76
2022/08/12 06:15:53;;;;;;;;;13.00;13.00;;;;;37.33;17.68;100705.88;4977531;28;45444;-76
2022/08/12 06:18:18;;;;;;;;;11.50;11.50;;;;;37.49;18.00;100704.69;4977194;28;45400;-76
2022/08/12 06:20:47;;;;;;;;;10.25;9.75;;;;;37.88;17.89;100701.47;4976828;28;45487;-76
2022/08/12 06:23:14;;;;;;;;;10.75;10.75;;;;;38.21;17.61;100702.41;4977348;28;45365;-76
2022/08/12 06:25:40;;;;;;;;;12.00;11.50;;;;;38.42;16.74;100706.03;4977525;28;45335;-75
2022/08/12 06:28:18;;;;;;;;;12.25;12.25;;;;;38.77;16.63;100705.84;4977300;28;45454;-75
2022/08/12 06:30:44;;;;;;;;;12.00;12.00;;;;;39.11;17.34;100700.28;4976807;28;45499;-76
2022/08/12 06:33:10;;;;;;;;;10.00;10.00;;;;;39.42;16.13;100705.94;4998717;28;45439;-75
2022/08/12 06:35:37;;;;;;;;;10.00;10.00;;;;;39.50;16.26;100699.31;4961868;28;45575;-75
2022/08/12 06:38:02;;;;;;;;;12.00;12.00;;;;;39.95;16.48;100710.38;4990041;28;45943;-76
2022/08/12 06:43:12;;;;;;;;;11.50;11.50;;;;;40.71;15.23;100698.56;4977149;28;45389;-75
2022/08/12 06:45:44;;;;;;;;;13.75;12.75;;;;;40.35;14.89;100709.28;4978896;28;45280;-76
2022/08/12 06:48:10;;;;;;;;;10.25;9.75;;;;;40.36;14.85;100707.34;4976322;28;46179;-77
2022/08/12 06:50:36;;;;;;;;;12.50;11.00;;;;;40.28;16.25;100700.19;4975078;28;45447;-77
2022/08/12 06:53:04;;;;;;;;;11.50;11.50;;;;;40.39;14.82;100706.91;4976048;28;45355;-73
2022/08/12 06:55:32;;;;;;;;;11.25;10.75;;;;;40.13;15.03;100706.03;4976124;28;45432;-76
2022/08/12 06:58:00;;;;;;;;;10.50;9.50;;;;;40.30;14.67;100700.81;4976750;28;46308;-75
2022/08/12 07:00:29;;;;;;;;;8.75;8.75;;;;;40.76;15.04;100704.28;4976848;28;45473;-75
2022/08/12 07:02:56;;;;;;;;;10.50;10.50;;;;;40.94;14.87;100697.97;4975875;28;45411;-75
2022/08/12 07:05:25;;;;;;;;;9.75;8.75;;;;;41.07;14.71;100700.56;4977409;28;45466;-75
2022/08/12 07:07:54;;;;;;;;;10.00;9.00;;;;;40.76;13.78;100716.19;4978824;28;45499;-76
2022/08/12 07:10:22;;;;;;;;;8.00;8.00;;;;;40.02;14.94;100712.28;4976029;28;45471;-75
2022/08/12 07:12:53;;;;;;;;;10.75;10.00;;;;;39.79;15.09;100703.44;4976122;28;45439;-75
2022/08/12 07:15:23;;;;;;;;;7.50;7.50;;;;;39.48;15.23;100704.22;4976172;28;45646;-75
2022/08/12 07:17:50;;;;;;;;;11.75;11.00;;;;;38.91;14.94;100702.00;4976047;28;45925;-76
2022/08/12 07:20:16;;;;;;;;;11.00;9.75;;;;;39.14;15.42;100700.69;4976573;28;45422;-75
2022/08/12 07:22:41;;;;;;;;;9.00;8.25;;;;;39.57;15.54;100702.06;4981374;28;45620;-75
2022/08/12 07:27:53;;;;;;;;;9.00;9.00;;;;;39.03;15.10;100709.63;4976316;28;45811;-75
2022/08/12 07:30:19;;;;;;;;;7.75;7.75;;;;;39.33;15.26;100698.94;4976597;28;45420;-75
2022/08/12 07:32:48;;;;;;;;;10.00;10.00;;;;;39.44;15.48;100701.03;4970115;28;45838;-77
2022/08/12 07:35:15;;;;;;;;;11.00;10.00;;;;;39.84;15.00;100705.53;4972734;28;45447;-77
2022/08/12 07:37:41;;;;;;;;;9.00;9.00;;;;;39.91;15.53;100700.81;4975961;28;45418;-75
2022/08/12 07:40:10;;;;;;;;;11.00;10.50;;;;;40.46;14.91;100696.66;4976677;28;45382;-75
2022/08/12 07:42:36;;;;;;;;;8.25;8.25;;;;;40.01;14.43;100692.09;4976606;28;45425;-76
2022/08/12 07:45:03;;;;;;;;;10.75;9.75;;;;;39.53;14.95;100703.56;4971639;28;45506;-77
2022/08/12 07:47:29;;;;;;;;;10.00;9.50;;;;;39.69;15.04;100686.50;4972291;28;46447;-76
2022/08/12 07:49:55;;;;;;;;;6.25;6.25;;;;;39.36;14.85;100690.22;4976661;28;45459;-75
2022/08/12 07:52:21;;;;;;;;;7.75;7.75;;;;;38.98;14.98;100696.47;4973998;28;45712;-76
2022/08/12 07:54:47;;;;;;;;;8.50;8.50;;;;;38.97;14.73;100689.25;4983015;28;46157;-76
2022/08/12 07:57:13;;;;;;;;;10.00;10.00;;;;;39.42;15.22;100694.88;4981022;28;45358;-75
2022/08/12 07:59:39;;;;;;;;;10.75;10.50;;;;;39.18;15.33;100692.84;4985366;28;45565;-75
2022/08/12 08:02:08;;;;;;;;;8.50;8.50;;;;;39.40;15.49;100698.91;4983988;28;45560;-75
2022/08/12 08:07:18;;;;;;;;;9.25;9.00;;;;;38.96;15.76;100697.75;4973884;28;45948;-76
2022/08/12 08:09:44;;;;;;;;;8.75;8.75;;;;;38.80;15.73;100699.06;4975565;28;45504;-76
2022/08/12 08:14:54;;;;;;;;;9.00;9.00;;;;;38.97;15.41;100705.81;4967410;28;45537;-75
2022/08/12 08:17:20;;;;;;;;;7.50;7.50;;;;;38.79;15.81;100702.88;4975999;28;46024;-75
2022/08/12 08:19:51;;;;;;;;;9.00;7.75;;;;;38.91;15.50;100712.19;4975080;28;45560;-76
2022/08/12 08:22:17;;;;;;;;;8.00;8.00;;;;;38.99;15.56;100703.66;4975920;28;45390;-74
2022/08/12 08:24:44;;;;;;;;;8.50;8.25;;;;;39.47;15.21;100710.81;4975216;28;45464;-75
2022/08/12 08:27:09;;;;;;;;;8.00;8.00;;;;;39.55;15.28;100712.50;4974286;28;46008;-77
2022/08/12 08:29:35;;;;;;;;;7.00;7.00;;;;;39.22;15.17;100719.81;4974351;28;45431;-75
2022/08/12 08:32:08;;;;;;;;;7.00;7.00;;;;;38.94;15.98;100711.75;4975666;28;45430;-75
2022/08/12 08:34:35;;;;;;;;;11.25;10.25;;;;;39.04;15.46;100706.66;4973796;28;45488;-76
2022/08/12 08:37:00;;;;;;;;;8.75;8.75;;;;;39.05;15.26;100715.78;4975163;28;46870;-76
2022/08/12 08:39:26;;;;;;;;;8.00;7.75;;;;;38.79;15.77;100706.47;4974408;28;45589;-76
2022/08/12 08:44:40;;;;;;;;;10.25;10.25;;;;;39.26;15.12;100701.72;4957709;28;45321;-75
2022/08/12 08:47:07;;;;;;;;;9.00;9.00;;;;;39.32;15.45;100701.94;4960783;28;46273;-74
2022/08/12 08:49:35;;;;;;;;;3.50;3.50;;;;;39.06;15.60;100701.75;4974869;28;45590;-74
2022/08/12 08:52:01;;;;;;;;;10.50;10.00;;;;;39.09;15.24;100706.88;4958507;28;45446;-76
2022/08/12 08:54:30;;;;;;;;;6.75;6.50;;;;;39.17;15.54;100710.47;4954900;28;45679;-75
2022/08/12 08:56:55;;;;;;;;;8.00;8.00;;;;;38.96;15.15;100704.09;4953644;28;46906;-76
2022/08/12 08:59:21;;;;;;;;;8.25;8.25;;;;;38.88;15.71;100712.63;4955166;28;45281;-75
2022/08/12 09:01:47;;;;;;;;;6.50;6.00;;;;;39.48;15.37;100701.44;4955370;28;45461;-75
2022/08/12 09:04:13;;;;;;;;;9.00;9.00;;;;;39.83;15.20;100703.00;4955381;28;45292;-75
2022/08/12 09:06:42;;;;;;;;;7.50;6.25;;;;;40.07;15.41;100699.50;4955031;28;45538;-75
2022/08/12 09:09:09;;;;;;;;;6.25;6.25;;;;;40.52;13.99;100706.00;4954685;28;45450;-76
2022/08/12 09:14:18;;;;;;;;;9.25;9.25;;;;;40.77;14.39;100704.06;4954912;28;45452;-75
2022/08/12 09:16:44;;;;;;;;;8.50;8.50;;;;;41.02;14.03;100694.88;4953430;28;48165;-76
2022/08/12 09:19:12;;;;;;;;;6.50;6.00;;;;;40.92;13.97;100700.09;4955270;28;45324;-75
2022/08/12 09:21:38;;;;;;;;;10.00;10.00;;;;;40.76;15.23;100685.75;4969914;28;45548;-75
2022/08/12 09:24:04;;;;;;;;;8.75;8.75;;;;;40.82;14.68;100700.59;4954091;28;45724;-75
2022/08/12 09:26:30;;;;;;;;;9.50;8.00;;;;;40.44;15.30;100694.13;4954761;28;45479;-76
2022/08/12 09:28:56;;;;;;;;;2.25;2.25;;;;;40.25;14.81;100700.63;4954501;28;45420;-76
2022/08/12 09:31:23;;;;;;;;;8.00;8.00;;;;;40.23;15.10;100691.72;4955391;28;45497;-76
2022/08/12 09:33:49;;;;;;;;;8.50;8.50;;;;;39.86;15.30;100685.97;4972047;28;45404;-76
2022/08/12 09:36:15;;;;;;;;;6.25;6.25;;;;;39.69;15.30;100692.03;4974398;28;45905;-75
2022/08/12 09:38:42;;;;;;;;;8.00;8.00;;;;;39.50;15.76;100693.78;4973935;28;45563;-76
2022/08/12 09:41:08;;;;;;;;;9.75;7.75;;;;;39.28;15.31;100695.97;4973695;28;45372;-76
2022/08/12 09:46:17;;;;;;;;;8.00;8.00;;;;;39.96;14.46;100683.56;4974435;28;45458;-75
2022/08/12 09:48:45;;;;;;;;;9.00;9.00;;;;;40.17;15.49;100684.31;4974298;28;45341;-76
2022/08/12 09:51:12;;;;;;;;;9.50;9.50;;;;;39.90;15.68;100678.91;4974223;28;45440;-74
2022/08/12 09:53:38;;;;;;;;;9.00;9.00;;;;;40.01;15.19;100682.91;4974275;28;45324;-76
2022/08/12 09:56:06;;;;;;;;;7.75;7.75;;;;;40.01;15.29;100664.44;4973158;28;45444;-76
2022/08/12 09:58:33;;;;;;;;;9.00;9.00;;;;;40.32;15.49;100679.28;4972813;28;45422;-75
2022/08/12 10:01:00;;;;;;;;;9.00;7.50;;;;;39.92;15.52;100677.63;4973984;28;45439;-75
2022/08/12 10:03:30;;;;;;;;;6.00;6.00;;;;;40.22;15.79;100671.47;4974094;28;45427;-75
2022/08/12 10:05:56;;;;;;;;;7.25;5.75;;;;;40.57;14.22;100662.69;4973944;28;46198;-76
2022/08/12 10:08:26;;;;;;;;;9.50;8.00;;;;;40.24;15.64;100665.72;4974440;28;45471;-76
2022/08/12 10:13:40;;;;;;;;;7.00;7.00;;;;;39.95;14.29;100662.50;4973914;28;45352;-76
2022/08/12 10:16:13;;;;;;;;;6.25;6.25;;;;;40.09;14.26;100652.25;4973633;28;46495;-76
2022/08/12 10:18:43;;;;;;;;;7.00;7.00;;;;;39.66;15.08;100663.97;4973915;28;45351;-75
2022/08/12 10:21:11;;;;;;;;;7.00;7.00;;;;;39.21;14.75;100662.88;4973994;28;45464;-76
2022/08/12 10:23:38;;;;;;;;;7.25;6.75;;;;;39.33;14.39;100651.97;4972954;28;45349;-76
2022/08/12 10:31:32;;;;;;;;;5.00;5.00;;;;;39.56;14.94;100642.34;4973793;28;45547;-77
2022/08/12 10:33:57;;;;;;;;;7.75;7.75;;;;;39.87;14.85;100635.13;4973677;28;45601;-76
2022/08/12 10:36:23;;;;;;;;;8.00;6.50;;;;;39.95;15.10;100623.78;4973302;28;45262;-76
2022/08/12 10:38:53;;;;;;;;;8.50;7.25;;;;;39.80;14.46;100640.72;4973038;28;45320;-76
2022/08/12 10:44:04;;;;;;;;;7.50;7.50;;;;;39.33;14.96;100621.59;4973773;28;45461;-76
2022/08/12 10:46:30;;;;;;;;;5.00;5.00;;;;;38.89;14.97;100640.63;4973165;28;46602;-75
2022/08/12 10:48:56;;;;;;;;;6.25;6.25;;;;;38.64;15.30;100623.88;4973274;28;45462;-75
2022/08/12 10:51:21;;;;;;;;;5.00;5.00;;;;;38.84;14.80;100626.63;4975905;28;45405;-77
2022/08/12 10:53:47;;;;;;;;;8.75;7.75;;;;;39.16;14.99;100625.91;4974880;28;45442;-77
2022/08/12 10:56:14;;;;;;;;;3.00;3.00;;;;;39.75;15.38;100616.50;4975330;28;46945;-76
2022/08/12 10:58:40;;;;;;;;;3.50;3.50;;;;;40.15;15.01;100607.09;4977314;28;45415;-76
2022/08/12 11:01:09;;;;;;;;;4.50;4.50;;;;;39.40;14.14;100627.94;4976713;28;45361;-76
2022/08/12 11:03:37;;;;;;;;;5.75;5.75;;;;;39.13;14.10;100631.88;4977243;28;45386;-76
2022/08/12 11:06:05;;;;;;;;;6.00;5.50;;;;;38.63;15.11;100622.19;4976477;28;46089;-76
2022/08/12 11:08:31;;;;;;;;;5.00;5.00;;;;;38.39;15.14;100638.31;4975648;28;45371;-75
2022/08/12 11:10:56;;;;;;;;;5.00;5.00;;;;;38.02;15.12;100610.28;4976391;28;45316;-75
2022/08/12 11:13:21;;;;;;;;;6.00;6.00;;;;;38.18;14.90;100602.69;4976707;28;45409;-76
2022/08/12 11:15:47;;;;;;;;;6.00;4.50;;;;;38.51;15.38;100599.06;4976578;28;45440;-76
2022/08/12 11:18:12;;;;;;;;;6.50;6.00;;;;;38.46;14.70;100593.31;4974721;28;45735;-76
2022/08/12 11:20:38;;;;;;;;;8.50;8.50;;;;;38.48;15.01;100591.22;4976550;28;45370;-76
2022/08/12 11:23:03;;;;;;;;;6.00;6.00;;;;;38.58;15.49;100580.56;4976208;28;45444;-75
2022/08/12 11:25:29;;;;;;;;;3.50;3.50;;;;;38.63;14.91;100602.84;4975924;28;45983;-74
2022/08/12 11:27:54;;;;;;;;;5.50;4.50;;;;;38.53;15.12;100572.09;4976326;28;45492;-74
2022/08/12 11:30:20;;;;;;;;;5.50;4.75;;;;;38.89;14.75;100590.09;4976034;28;45414;-75
2022/08/12 11:32:45;;;;;;;;;4.50;4.00;;;;;39.12;14.32;100569.41;4976691;28;45448;-75
2022/08/12 11:35:11;;;;;;;;;4.75;4.75;;;;;39.40;14.38;100572.66;4975776;28;46585;-76
2022/08/12 11:37:37;;;;;;;;;8.25;5.00;;;;;39.43;13.70;100565.84;4974364;28;45552;-75
2022/08/12 11:40:05;;;;;;;;;5.75;5.75;;;;;39.25;13.95;100572.97;4975704;28;45489;-75
2022/08/12 11:42:30;;;;;;;;;6.00;4.75;;;;;39.22;15.02;100550.44;4976056;28;45474;-76
2022/08/12 11:44:55;;;;;;;;;7.00;6.00;;;;;39.67;14.86;100547.63;4975731;28;45471;-75
2022/08/12 11:47:21;;;;;;;;;5.00;5.00;;;;;39.73;13.76;100555.03;4977709;28;45561;-75
2022/08/12 11:49:46;;;;;;;;;5.00;5.00;;;;;39.74;14.90;100562.25;4975782;28;45777;-75
2022/08/12 11:52:11;;;;;;;;;5.25;5.25;;;;;39.83;14.53;100551.78;4975731;28;45558;-75
2022/08/12 11:54:37;;;;;;;;;5.00;5.00;;;;;39.56;14.07;100545.59;4974066;28;47212;-75
2022/08/12 11:57:03;;;;;;;;;5.00;4.50;;;;;39.79;14.91;100547.75;4990963;28;45465;-76
2022/08/12 11:59:30;;;;;;;;;4.75;4.75;;;;;40.18;13.70;100550.44;4975730;28;45439;-75
2022/08/12 12:01:55;;;;;;;;;5.25;5.25;;;;;40.20;14.00;100537.22;4977210;28;45542;-77
2022/08/12 12:04:21;;;;;;;;;5.25;3.00;;;;;40.10;13.36;100540.50;4975410;28;45509;-76
2022/08/12 12:06:46;;;;;;;;;4.50;4.50;;;;;39.86;13.91;100554.09;4975478;28;45407;-77
2022/08/12 12:09:12;;;;;;;;;6.50;6.50;;;;;39.77;13.61;100555.44;4975564;28;45307;-76
2022/08/12 12:11:37;;;;;;;;;4.75;4.75;;;;;39.36;13.46;100538.25;4975293;28;45358;-74
2022/08/12 12:14:02;;;;;;;;;5.75;5.75;;;;;38.93;14.66;100533.34;4976010;28;46489;-76
2022/08/12 12:16:28;;;;;;;;;8.00;7.00;;;;;38.81;14.17;100530.44;4975307;28;45412;-75
2022/08/12 12:18:53;;;;;;;;;5.00;5.00;;;;;38.09;14.74;100537.75;4973962;28;45452;-76
2022/08/12 12:21:18;;;;;;;;;5.75;4.50;;;;;37.99;14.76;100528.00;4975017;28;45581;-75
2022/08/12 12:23:44;;;;;;;;;6.00;6.00;;;;;37.79;15.07;100532.66;4975022;28;45362;-76
2022/08/12 12:26:09;;;;;;;;;4.50;4.50;;;;;37.65;15.18;100520.75;4973662;28;45395;-75
2022/08/12 12:28:37;;;;;;;;;6.75;6.75;;;;;37.57;14.95;100527.31;4975391;28;45663;-76
2022/08/12 12:31:03;;;;;;;;;5.00;5.00;;;;;37.09;15.96;100527.38;4975702;28;45435;-75
2022/08/12 12:33:28;;;;;;;;;4.50;4.50;;;;;36.61;15.00;100536.44;4975251;28;45500;-76
2022/08/12 12:35:54;;;;;;;;;5.00;5.00;;;;;36.39;16.26;100524.66;4974610;28;45374;-76
2022/08/12 12:38:20;;;;;;;;;6.00;4.75;;;;;36.18;16.02;100533.81;4975321;28;45785;-74
2022/08/12 12:40:47;;;;;;;;;6.00;5.00;;;;;35.98;16.10;100525.41;4974687;28;45476;-76
2022/08/12 12:43:14;;;;;;;;;4.50;4.50;;;;;36.01;15.62;100519.50;4974972;28;45442;-75
2022/08/12 12:45:40;;;;;;;;;4.25;3.25;;;;;36.08;16.35;100525.91;4974795;28;45519;-75
2022/08/12 12:48:11;;;;;;;;;6.00;5.00;;;;;35.96;15.95;100524.75;4975034;28;45415;-76
2022/08/12 12:50:42;;;;;;;;;4.50;3.25;;;;;35.87;16.67;100524.88;4974424;28;45545;-76
2022/08/12 12:53:08;;;;;;;;;5.25;5.25;;;;;35.67;16.95;100512.84;4974547;28;46062;-76
2022/08/12 12:55:36;;;;;;;;;6.00;6.00;;;;;35.57;16.82;100511.25;4974370;28;45447;-76
2022/08/12 12:58:10;;;;;;;;;7.25;6.75;;;;;35.72;16.66;100491.97;4975263;28;45451;-76
2022/08/12 13:00:39;;;;;;;;;5.00;5.00;;;;;35.80;16.77;100502.00;4975059;28;45459;-76
2022/08/12 13:03:05;;;;;;;;;5.50;5.50;;;;;35.50;17.38;100507.63;4975100;28;46015;-75
2022/08/12 13:05:35;;;;;;;;;6.00;6.00;;;;;35.33;17.06;100531.75;4972744;28;45361;-75
2022/08/12 13:08:03;;;;;;;;;5.00;5.00;;;;;35.15;16.87;100501.06;4974842;28;45442;-75
2022/08/12 13:10:31;;;;;;;;;7.00;6.00;;;;;35.43;18.06;100495.72;4974354;28;45577;-76
2022/08/12 13:12:57;;;;;;;;;6.25;6.25;;;;;35.55;17.12;100499.63;4974223;28;46008;-75